Time;durP1;ratioP1;P1;durP2;ratioP2;P2;SDS_P1;SDS_P2;PMS_P1;PMS_P2;Temp;Humidity;BMP_temperature;BMP_pressure;BME280_temperature;BME280_humidity;BME280_pressure;Samples;Min_cycle;Max_cycle;Signal;HPM_P1;HPM_P2
2023/11/07 00:01:30;;;;;;;9.53;5.00;;;21.60;58.70;;;;;;5032172;28;20410;-70
2023/11/07 00:03:57;;;;;;;6.63;3.50;;;21.60;58.70;;;;;;5032063;28;20402;-69
2023/11/07 00:06:22;;;;;;;6.13;3.47;;;21.60;58.70;;;;;;5031998;28;20681;-69
2023/11/07 00:08:48;;;;;;;6.50;4.33;;;21.60;58.70;;;;;;5032322;28;20421;-69
2023/11/07 00:11:14;;;;;;;4.90;3.67;;;21.60;58.70;;;;;;5031998;28;20176;-69
2023/11/07 00:13:42;;;;;;;6.57;4.53;;;21.60;58.70;;;;;;5031878;28;20414;-70
2023/11/07 00:16:10;;;;;;;4.73;3.13;;;21.60;58.70;;;;;;5032050;28;20310;-70
2023/11/07 00:18:35;;;;;;;8.97;3.80;;;21.60;58.70;;;;;;5031627;28;21153;-69
2023/11/07 00:21:01;;;;;;;6.90;4.33;;;21.60;58.70;;;;;;5031742;28;20505;-70
2023/11/07 00:23:27;;;;;;;4.53;3.20;;;21.60;58.70;;;;;;5031736;28;20282;-70
2023/11/07 00:25:53;;;;;;;7.30;3.93;;;21.60;58.70;;;;;;5031612;28;20929;-70
2023/11/07 00:28:19;;;;;;;6.40;3.50;;;21.60;58.70;;;;;;5031744;28;20778;-70
2023/11/07 00:30:46;;;;;;;5.83;3.70;;;21.60;58.70;;;;;;5031661;28;20203;-67
2023/11/07 00:33:11;;;;;;;5.23;3.53;;;21.60;58.70;;;;;;5031553;28;20513;-69
2023/11/07 00:35:38;;;;;;;5.53;3.30;;;21.60;58.70;;;;;;5031475;28;21027;-69
2023/11/07 00:38:04;;;;;;;5.13;3.07;;;21.60;58.70;;;;;;5031360;28;20202;-70
2023/11/07 00:40:30;;;;;;;6.00;3.60;;;21.60;58.70;;;;;;5031402;28;20677;-69
2023/11/07 00:42:56;;;;;;;6.10;3.80;;;21.60;58.60;;;;;;5031406;28;20405;-69
2023/11/07 00:45:21;;;;;;;5.80;3.60;;;21.60;58.70;;;;;;5031644;28;20899;-70
2023/11/07 00:47:47;;;;;;;5.03;3.20;;;21.60;58.70;;;;;;5031340;28;20970;-70
2023/11/07 00:50:13;;;;;;;7.27;3.20;;;21.60;58.70;;;;;;5031253;28;20184;-70
2023/11/07 00:52:38;;;;;;;6.20;3.17;;;21.60;58.70;;;;;;5031185;28;20183;-70
2023/11/07 00:55:07;;;;;;;4.90;3.43;;;21.60;58.70;;;;;;5030519;28;20654;-70
2023/11/07 00:57:33;;;;;;;4.77;3.23;;;21.60;58.70;;;;;;5031010;28;20239;-69
2023/11/07 00:59:58;;;;;;;5.47;3.37;;;21.60;58.60;;;;;;5030989;28;20496;-69
2023/11/07 01:02:24;;;;;;;4.30;3.30;;;21.60;58.70;;;;;;5030987;28;20176;-70
2023/11/07 01:04:49;;;;;;;4.73;3.70;;;21.60;58.70;;;;;;5030937;28;20168;-69
2023/11/07 01:07:15;;;;;;;3.30;2.53;;;21.60;58.70;;;;;;5030992;28;20183;-69
2023/11/07 01:09:41;;;;;;;4.97;2.90;;;21.60;58.70;;;;;;5030862;28;20673;-69
2023/11/07 01:12:08;;;;;;;4.43;3.00;;;21.60;58.60;;;;;;5030944;28;20202;-68
2023/11/07 01:14:34;;;;;;;4.60;3.00;;;21.60;58.60;;;;;;5030875;28;20195;-69
2023/11/07 01:17:00;;;;;;;6.30;3.70;;;21.60;58.70;;;;;;5030561;28;20494;-69
2023/11/07 01:19:26;;;;;;;4.23;2.90;;;21.60;58.70;;;;;;5029960;28;20430;-69
2023/11/07 01:21:52;;;;;;;4.50;2.80;;;21.60;58.60;;;;;;5030194;28;20180;-70
2023/11/07 01:24:18;;;;;;;4.60;3.27;;;21.60;58.70;;;;;;5029860;28;20407;-70
2023/11/07 01:26:44;;;;;;;5.03;3.30;;;21.60;58.60;;;;;;5029750;28;20492;-68
2023/11/07 01:29:10;;;;;;;3.83;3.00;;;21.60;58.60;;;;;;5029825;28;20297;-69
2023/11/07 01:31:35;;;;;;;3.80;2.90;;;21.60;58.60;;;;;;5029717;28;20174;-69
2023/11/07 01:34:01;;;;;;;5.53;3.33;;;21.60;58.60;;;;;;5029718;28;20179;-69
2023/11/07 01:36:27;;;;;;;5.67;3.07;;;21.60;58.60;;;;;;5029650;28;20184;-70
2023/11/07 01:38:52;;;;;;;4.00;3.13;;;21.60;58.60;;;;;;5029538;28;20631;-68
2023/11/07 01:41:18;;;;;;;3.93;3.03;;;21.60;58.70;;;;;;5029635;28;20661;-70
2023/11/07 01:43:45;;;;;;;3.70;2.93;;;21.60;58.60;;;;;;5029647;28;20251;-70
2023/11/07 01:46:11;;;;;;;5.23;3.50;;;21.60;58.60;;;;;;5029520;28;20278;-70
2023/11/07 01:48:37;;;;;;;3.53;2.70;;;21.60;58.60;;;;;;5029406;28;20501;-68
2023/11/07 01:51:04;;;;;;;5.23;3.30;;;21.60;58.70;;;;;;5029553;28;20730;-70
2023/11/07 01:53:30;;;;;;;6.37;3.40;;;21.60;58.70;;;;;;5029406;28;20505;-69
2023/11/07 01:55:57;;;;;;;5.00;3.13;;;21.60;58.60;;;;;;5029397;28;20966;-70
2023/11/07 01:58:24;;;;;;;5.30;2.87;;;21.60;58.60;;;;;;5029397;28;20450;-69
2023/11/07 02:00:53;;;;;;;5.60;2.73;;;21.60;58.60;;;;;;5029315;28;20407;-69
2023/11/07 02:03:21;;;;;;;4.47;3.50;;;21.60;58.60;;;;;;5029388;28;20844;-70
2023/11/07 02:05:46;;;;;;;5.17;2.60;;;21.60;58.70;;;;;;5028784;28;20433;-70
2023/11/07 02:08:13;;;;;;;3.70;3.07;;;21.60;58.60;;;;;;5041724;28;20476;-71
2023/11/07 02:10:38;;;;;;;3.30;2.93;;;21.60;58.60;;;;;;5049121;28;20199;-68
2023/11/07 02:13:04;;;;;;;6.70;3.00;;;21.60;58.60;;;;;;5049086;28;20444;-69
2023/11/07 02:15:31;;;;;;;4.27;3.13;;;21.60;58.60;;;;;;5048939;28;20206;-69
2023/11/07 02:17:57;;;;;;;4.40;2.50;;;21.60;58.60;;;;;;5010035;28;1129316;-69
2023/11/07 02:20:23;;;;;;;4.77;2.60;;;21.60;58.60;;;;;;5049872;28;20182;-70
2023/11/07 02:22:58;;;;;;;4.10;3.00;;;21.60;58.60;;;;;;5049786;28;20425;-70
2023/11/07 02:25:24;;;;;;;3.73;2.80;;;21.60;58.60;;;;;;5049764;28;20554;-70
2023/11/07 02:27:49;;;;;;;3.80;2.70;;;21.60;58.60;;;;;;5049805;28;20402;-70
2023/11/07 02:30:16;;;;;;;4.30;2.83;;;21.60;58.60;;;;;;5049735;28;20254;-70
2023/11/07 02:32:42;;;;;;;5.53;2.90;;;21.50;58.60;;;;;;5049733;28;20194;-70
2023/11/07 02:35:11;;;;;;;4.10;2.80;;;21.60;58.70;;;;;;5049602;28;20421;-70
2023/11/07 02:37:37;;;;;;;3.93;2.50;;;21.60;58.60;;;;;;5049766;28;20845;-70
2023/11/07 02:40:04;;;;;;;4.30;3.20;;;21.50;58.60;;;;;;5049719;28;20421;-69
2023/11/07 02:42:30;;;;;;;6.00;3.67;;;21.60;58.60;;;;;;5049885;28;20979;-70
2023/11/07 02:44:59;;;;;;;4.50;2.90;;;21.60;58.60;;;;;;5049604;28;20406;-70
2023/11/07 02:47:25;;;;;;;3.63;2.57;;;21.50;58.60;;;;;;5049579;28;20508;-69
2023/11/07 02:49:51;;;;;;;3.17;2.27;;;21.60;58.70;;;;;;5049568;28;20828;-69
2023/11/07 02:52:17;;;;;;;3.20;2.13;;;21.50;59.10;;;;;;5049507;28;20448;-70
2023/11/07 02:54:44;;;;;;;5.47;2.93;;;21.50;58.60;;;;;;5049511;28;20417;-69
2023/11/07 02:57:10;;;;;;;2.97;2.03;;;21.50;58.60;;;;;;5049388;28;20714;-70
2023/11/07 02:59:35;;;;;;;4.77;2.97;;;21.60;58.70;;;;;;5049512;28;20414;-70
2023/11/07 03:02:03;;;;;;;3.70;2.50;;;21.60;58.70;;;;;;5049453;28;20409;-70
2023/11/07 03:04:28;;;;;;;5.50;3.10;;;21.50;58.60;;;;;;5049422;28;20224;-70
2023/11/07 03:06:54;;;;;;;3.40;2.50;;;21.50;58.60;;;;;;5049315;28;20433;-70
2023/11/07 03:09:20;;;;;;;3.27;2.60;;;21.50;58.60;;;;;;5049601;28;20182;-70
2023/11/07 03:11:45;;;;;;;5.57;3.17;;;21.50;58.60;;;;;;5049436;28;20662;-69
2023/11/07 03:14:11;;;;;;;3.37;2.33;;;21.50;58.60;;;;;;5049281;28;20194;-70
2023/11/07 03:16:37;;;;;;;3.80;2.47;;;21.50;58.60;;;;;;5049271;28;20191;-69
2023/11/07 03:19:08;;;;;;;4.90;2.90;;;21.50;58.60;;;;;;5051593;28;20585;-70
2023/11/07 03:21:37;;;;;;;4.20;2.60;;;21.50;58.60;;;;;;5052929;28;20182;-70
2023/11/07 03:24:07;;;;;;;3.53;2.43;;;21.60;58.60;;;;;;5052795;28;20489;-70
2023/11/07 03:26:33;;;;;;;4.03;2.33;;;21.50;58.60;;;;;;5052800;28;20421;-69
2023/11/07 03:28:58;;;;;;;3.30;2.60;;;21.60;58.70;;;;;;5052829;28;20505;-70
2023/11/07 03:31:24;;;;;;;2.47;2.10;;;21.60;58.60;;;;;;5052761;28;20662;-69
2023/11/07 03:33:50;;;;;;;5.37;3.10;;;21.50;58.60;;;;;;5052706;28;20261;-69
2023/11/07 03:36:16;;;;;;;3.63;2.47;;;21.50;58.60;;;;;;5052884;28;20541;-69
2023/11/07 03:38:43;;;;;;;3.13;2.70;;;21.50;58.60;;;;;;5052476;28;20246;-69
2023/11/07 03:41:09;;;;;;;3.33;2.27;;;21.60;58.70;;;;;;5052494;28;20186;-70
2023/11/07 03:43:35;;;;;;;3.60;2.57;;;21.50;58.60;;;;;;5052575;28;20783;-70
2023/11/07 03:46:01;;;;;;;3.10;2.23;;;21.60;58.70;;;;;;5052391;28;20433;-69
2023/11/07 03:48:26;;;;;;;2.73;2.00;;;21.50;58.60;;;;;;5052430;28;20183;-69
2023/11/07 03:50:55;;;;;;;2.70;2.30;;;21.50;58.60;;;;;;5052376;28;20452;-70
2023/11/07 03:53:21;;;;;;;3.37;2.30;;;21.50;58.60;;;;;;5052336;28;20167;-69
2023/11/07 03:55:46;;;;;;;4.17;2.27;;;21.60;58.60;;;;;;5052181;28;20436;-70
2023/11/07 03:58:12;;;;;;;2.93;2.30;;;21.50;58.60;;;;;;5050771;28;20208;-70
2023/11/07 04:00:40;;;;;;;3.03;2.23;;;21.60;58.70;;;;;;5052236;28;20163;-70
2023/11/07 04:03:06;;;;;;;3.20;2.60;;;21.50;58.60;;;;;;5052160;28;20406;-70
2023/11/07 04:05:31;;;;;;;3.87;2.33;;;21.60;58.70;;;;;;5052314;28;20441;-70
2023/11/07 04:07:57;;;;;;;3.77;2.43;;;21.50;58.60;;;;;;5052013;28;20186;-69
2023/11/07 04:10:23;;;;;;;4.03;2.67;;;21.50;58.60;;;;;;5051981;28;20296;-70
2023/11/07 04:12:49;;;;;;;2.83;2.50;;;21.50;58.60;;;;;;5051901;28;20414;-69
2023/11/07 04:15:15;;;;;;;2.70;1.97;;;21.50;58.60;;;;;;5051786;28;20206;-69
2023/11/07 04:17:41;;;;;;;3.30;2.30;;;21.50;58.60;;;;;;5051602;28;20468;-69
2023/11/07 04:20:09;;;;;;;2.83;2.20;;;21.50;58.60;;;;;;5051791;28;20548;-69
2023/11/07 04:22:36;;;;;;;2.50;2.00;;;21.60;58.60;;;;;;5051726;28;20497;-70
2023/11/07 04:25:02;;;;;;;3.53;2.37;;;21.50;58.60;;;;;;5051553;28;20493;-69
2023/11/07 04:27:28;;;;;;;2.70;2.07;;;21.50;58.60;;;;;;5051704;28;21047;-70
2023/11/07 04:29:54;;;;;;;3.47;2.50;;;21.50;58.60;;;;;;5050661;28;20402;-69
2023/11/07 04:32:19;;;;;;;2.60;2.07;;;21.50;58.60;;;;;;5051628;28;20661;-69
2023/11/07 04:34:45;;;;;;;3.70;2.40;;;21.50;58.60;;;;;;5051514;28;20175;-69
2023/11/07 04:37:10;;;;;;;3.20;2.33;;;21.50;58.60;;;;;;5051331;28;20207;-68
2023/11/07 04:39:37;;;;;;;3.10;2.20;;;21.50;58.60;;;;;;5051554;28;20290;-69
2023/11/07 04:42:03;;;;;;;2.80;1.80;;;21.50;58.60;;;;;;5051756;28;20712;-70
2023/11/07 04:44:31;;;;;;;4.17;2.37;;;21.50;58.60;;;;;;5051270;28;20406;-70
2023/11/07 04:46:57;;;;;;;2.90;2.37;;;21.50;58.60;;;;;;5051266;28;20215;-70
2023/11/07 04:49:23;;;;;;;2.87;2.17;;;21.50;58.60;;;;;;5051224;28;20448;-70
2023/11/07 04:51:48;;;;;;;3.20;2.27;;;21.50;58.60;;;;;;5051164;28;20621;-69
2023/11/07 04:54:14;;;;;;;3.13;2.33;;;21.50;58.60;;;;;;5051199;28;20167;-69
2023/11/07 04:56:40;;;;;;;2.70;1.67;;;21.50;58.60;;;;;;5050953;28;20233;-69
2023/11/07 04:59:05;;;;;;;3.90;1.90;;;21.50;58.60;;;;;;5051132;28;20215;-70
2023/11/07 05:01:31;;;;;;;3.63;2.27;;;21.50;58.50;;;;;;5051019;28;20543;-70
2023/11/07 05:03:57;;;;;;;3.20;2.03;;;21.50;58.50;;;;;;5051118;28;20178;-70
2023/11/07 05:06:25;;;;;;;3.97;2.40;;;21.50;58.50;;;;;;5051172;28;20751;-70
2023/11/07 05:08:51;;;;;;;3.30;2.10;;;21.50;58.50;;;;;;5050768;28;20406;-69
2023/11/07 05:11:19;;;;;;;3.50;2.10;;;21.50;58.50;;;;;;5050714;28;20417;-70
2023/11/07 05:13:45;;;;;;;3.17;1.90;;;21.50;58.50;;;;;;5050778;28;20414;-70
2023/11/07 05:16:10;;;;;;;5.37;2.10;;;21.50;58.60;;;;;;5049306;28;20437;-70
2023/11/07 05:18:36;;;;;;;3.10;2.17;;;21.50;58.50;;;;;;5050409;28;20210;-69
2023/11/07 05:21:01;;;;;;;2.30;1.90;;;21.50;58.40;;;;;;5050709;28;20174;-70
2023/11/07 05:23:27;;;;;;;3.60;1.80;;;21.50;58.40;;;;;;5050552;28;20179;-70
2023/11/07 05:25:53;;;;;;;2.50;2.10;;;21.50;58.30;;;;;;5050261;28;20198;-70
2023/11/07 05:28:18;;;;;;;2.50;2.07;;;21.40;58.30;;;;;;5050466;28;20178;-69
2023/11/07 05:30:44;;;;;;;4.10;1.70;;;21.50;58.40;;;;;;5050476;28;20171;-70
2023/11/07 05:33:11;;;;;;;2.90;1.80;;;21.40;58.30;;;;;;5050355;28;20175;-70
2023/11/07 05:35:36;;;;;;;2.27;1.97;;;21.40;58.30;;;;;;5050635;28;20198;-69
2023/11/07 05:38:04;;;;;;;2.90;1.83;;;21.40;58.30;;;;;;5050242;28;20449;-68
2023/11/07 05:40:30;;;;;;;1.77;1.47;;;21.40;58.30;;;;;;5050057;28;20168;-70
2023/11/07 05:42:56;;;;;;;2.47;1.60;;;21.50;58.40;;;;;;5050584;28;20416;-69
2023/11/07 05:45:21;;;;;;;2.87;2.00;;;21.50;59.00;;;;;;5050303;28;20183;-68
2023/11/07 05:47:47;;;;;;;5.67;2.27;;;21.40;58.30;;;;;;5050336;28;20187;-70
2023/11/07 05:50:13;;;;;;;2.33;1.70;;;21.50;58.30;;;;;;5050281;28;20190;-70
2023/11/07 05:52:38;;;;;;;2.07;1.73;;;21.50;58.30;;;;;;5050200;28;20246;-69
2023/11/07 05:55:06;;;;;;;2.27;1.60;;;21.50;58.30;;;;;;5050549;28;20225;-69
2023/11/07 05:57:32;;;;;;;2.70;1.60;;;21.40;58.30;;;;;;5050189;28;20202;-69
2023/11/07 05:59:58;;;;;;;3.33;1.93;;;21.40;58.30;;;;;;5050126;28;20404;-70
2023/11/07 06:02:24;;;;;;;2.00;1.30;;;21.50;58.30;;;;;;5050051;28;20928;-68
2023/11/07 06:04:54;;;;;;;4.80;2.60;;;21.40;58.30;;;;;;5049911;28;20456;-70
2023/11/07 06:07:20;;;;;;;2.40;1.77;;;21.50;58.40;;;;;;5049776;28;20414;-69
2023/11/07 06:09:45;;;;;;;2.20;1.60;;;21.50;58.40;;;;;;5050016;28;20487;-69
2023/11/07 06:12:11;;;;;;;2.57;1.87;;;21.40;58.30;;;;;;5049907;28;20720;-69
2023/11/07 06:14:37;;;;;;;3.03;1.63;;;21.40;58.30;;;;;;5050086;28;20171;-69
2023/11/07 06:17:03;;;;;;;2.03;1.80;;;21.40;58.30;;;;;;5049431;28;20636;-70
2023/11/07 06:19:29;;;;;;;2.13;1.40;;;21.40;58.40;;;;;;5049964;28;20174;-70
2023/11/07 06:21:55;;;;;;;2.00;1.30;;;21.40;58.40;;;;;;5050152;28;20405;-70
2023/11/07 06:24:21;;;;;;;2.10;1.43;;;21.50;58.40;;;;;;5050111;28;20402;-70
2023/11/07 06:26:46;;;;;;;1.83;1.40;;;21.40;58.30;;;;;;5049769;28;20191;-69
2023/11/07 06:29:12;;;;;;;2.87;1.77;;;21.50;58.40;;;;;;5050349;28;20178;-68
2023/11/07 06:31:38;;;;;;;2.40;1.57;;;21.50;58.50;;;;;;5050059;28;20241;-69
2023/11/07 06:34:04;;;;;;;4.13;1.40;;;21.50;58.50;;;;;;5049796;28;20273;-71
2023/11/07 06:36:31;;;;;;;1.97;1.47;;;21.40;58.40;;;;;;5049611;28;20274;-70
2023/11/07 06:38:56;;;;;;;4.40;1.73;;;21.50;58.50;;;;;;5049801;28;20464;-70
2023/11/07 06:41:22;;;;;;;2.50;1.70;;;21.40;58.50;;;;;;5049745;28;21128;-69
2023/11/07 06:43:51;;;;;;;1.73;1.20;;;21.50;58.60;;;;;;5049855;28;20593;-67
2023/11/07 06:46:17;;;;;;;2.70;1.70;;;21.50;58.60;;;;;;5049694;28;20737;-69
2023/11/07 06:48:43;;;;;;;1.57;1.33;;;21.50;58.60;;;;;;5049652;28;20894;-69
2023/11/07 06:51:12;;;;;;;2.53;1.63;;;21.50;58.50;;;;;;5049609;28;20424;-70
2023/11/07 06:53:37;;;;;;;1.87;1.57;;;21.50;58.50;;;;;;5051312;28;20948;-70
2023/11/07 06:56:03;;;;;;;2.60;1.53;;;21.50;58.40;;;;;;5053312;28;20476;-70
2023/11/07 06:58:29;;;;;;;2.80;1.40;;;21.50;58.50;;;;;;5053195;28;20207;-70
2023/11/07 07:00:55;;;;;;;3.03;1.63;;;21.40;58.40;;;;;;5053570;28;20424;-69
2023/11/07 07:03:25;;;;;;;2.67;1.67;;;21.50;58.50;;;;;;5053355;28;20178;-70
2023/11/07 07:05:54;;;;;;;2.10;1.50;;;21.50;58.50;;;;;;5053060;28;20187;-70
2023/11/07 07:08:24;;;;;;;2.80;1.73;;;21.50;58.50;;;;;;5053143;28;20421;-69
2023/11/07 07:10:50;;;;;;;2.83;2.03;;;21.50;58.50;;;;;;5053110;28;20910;-71
2023/11/07 07:13:18;;;;;;;1.87;1.67;;;21.50;58.50;;;;;;5053259;28;20413;-71
2023/11/07 07:15:43;;;;;;;2.30;1.20;;;21.50;58.50;;;;;;5052987;28;20932;-69
2023/11/07 07:18:10;;;;;;;1.47;1.37;;;21.50;58.50;;;;;;5052736;28;20560;-70
2023/11/07 07:20:36;;;;;;;1.80;1.47;;;21.50;58.50;;;;;;5053061;28;20163;-70
2023/11/07 07:23:05;;;;;;;2.30;1.60;;;21.50;58.50;;;;;;5053297;28;20894;-71
2023/11/07 07:25:32;;;;;;;1.93;1.63;;;21.50;58.50;;;;;;5052788;28;20448;-70
2023/11/07 07:27:58;;;;;;;1.97;1.40;;;21.50;58.50;;;;;;5052768;28;20413;-69
2023/11/07 07:30:26;;;;;;;2.57;1.20;;;21.50;58.50;;;;;;5052747;28;21128;-70
2023/11/07 07:32:52;;;;;;;2.37;1.90;;;21.50;58.50;;;;;;5053046;28;20417;-69
2023/11/07 07:35:20;;;;;;;1.70;1.53;;;21.50;58.50;;;;;;5052548;28;20527;-70
2023/11/07 07:37:53;;;;;;;1.70;1.60;;;21.50;58.50;;;;;;5052563;28;20464;-70
2023/11/07 07:40:25;;;;;;;2.40;1.40;;;21.50;58.50;;;;;;5052695;28;20390;-70
2023/11/07 07:42:53;;;;;;;1.80;1.20;;;21.50;58.50;;;;;;5052759;28;20400;-69
2023/11/07 07:45:19;;;;;;;2.30;1.40;;;21.50;58.50;;;;;;5052715;28;20521;-68
2023/11/07 07:47:46;;;;;;;1.97;1.77;;;21.50;58.50;;;;;;5052349;28;20413;-69
2023/11/07 07:50:12;;;;;;;1.87;1.40;;;21.50;58.50;;;;;;5052393;28;20409;-70
2023/11/07 07:52:38;;;;;;;2.03;1.57;;;21.50;58.50;;;;;;5052532;28;20479;-68
2023/11/07 07:55:07;;;;;;;2.30;1.50;;;21.50;58.50;;;;;;5052199;28;20422;-70
2023/11/07 07:57:36;;;;;;;2.53;1.47;;;21.50;58.50;;;;;;5052511;28;20500;-69
2023/11/07 08:00:03;;;;;;;2.53;1.50;;;21.50;58.50;;;;;;5052424;28;20492;-69
2023/11/07 08:02:29;;;;;;;1.87;1.50;;;21.50;58.50;;;;;;5052086;28;20409;-69
2023/11/07 08:04:56;;;;;;;2.17;1.67;;;21.50;58.50;;;;;;5051904;28;20464;-70
2023/11/07 08:07:22;;;;;;;1.80;1.67;;;21.50;58.60;;;;;;5052251;28;20196;-70
2023/11/07 08:09:49;;;;;;;2.57;1.60;;;21.50;58.50;;;;;;5052095;28;20411;-69
2023/11/07 08:12:15;;;;;;;2.03;1.27;;;21.50;58.50;;;;;;5052191;28;20179;-69
2023/11/07 08:14:43;;;;;;;1.70;1.40;;;21.50;58.50;;;;;;5051960;28;20901;-70
2023/11/07 08:17:09;;;;;;;2.43;1.70;;;21.50;58.50;;;;;;5051550;28;20682;-70
2023/11/07 08:19:35;;;;;;;1.83;1.53;;;21.50;58.50;;;;;;5051858;28;20467;-70
2023/11/07 08:22:00;;;;;;;1.80;1.20;;;21.50;58.50;;;;;;5051944;28;20549;-69
2023/11/07 08:24:26;;;;;;;3.80;1.33;;;21.50;58.50;;;;;;5051749;28;20840;-70
2023/11/07 08:26:52;;;;;;;1.70;1.20;;;21.50;58.50;;;;;;5051593;28;20191;-70
2023/11/07 08:29:17;;;;;;;3.13;1.83;;;21.50;58.50;;;;;;5051721;28;20630;-70
2023/11/07 08:31:43;;;;;;;1.90;1.10;;;21.50;58.50;;;;;;5051663;28;20182;-69
2023/11/07 08:34:09;;;;;;;1.67;1.40;;;21.50;58.50;;;;;;5051520;28;20175;-70
2023/11/07 08:36:39;;;;;;;1.83;1.40;;;21.50;58.50;;;;;;5051481;28;20191;-70
2023/11/07 08:39:12;;;;;;;2.47;1.70;;;21.50;58.50;;;;;;5051473;28;20284;-70
2023/11/07 08:41:37;;;;;;;2.43;1.40;;;21.50;58.40;;;;;;5051527;28;20401;-70
2023/11/07 08:44:08;;;;;;;1.50;1.30;;;21.50;58.50;;;;;;5051326;28;20916;-71
2023/11/07 08:46:33;;;;;;;1.60;1.40;;;21.50;58.50;;;;;;5051576;28;20195;-67
2023/11/07 08:48:59;;;;;;;1.77;1.27;;;21.50;58.50;;;;;;5051289;28;20486;-70
2023/11/07 08:51:24;;;;;;;1.93;1.20;;;21.50;58.50;;;;;;5051213;28;20657;-68
2023/11/07 08:53:50;;;;;;;1.97;1.43;;;21.50;58.50;;;;;;5051245;28;20573;-69
2023/11/07 08:56:15;;;;;;;2.90;1.80;;;21.50;58.50;;;;;;5051211;28;20199;-69
2023/11/07 08:58:41;;;;;;;1.67;1.50;;;21.50;58.60;;;;;;5050984;28;20209;-70
2023/11/07 09:01:10;;;;;;;2.50;1.57;;;21.50;58.50;;;;;;5051226;28;20642;-70
2023/11/07 09:03:36;;;;;;;3.10;1.50;;;21.50;58.60;;;;;;5051061;28;20167;-67
2023/11/07 09:06:01;;;;;;;2.00;1.30;;;21.50;58.50;;;;;;5050887;28;20937;-69
2023/11/07 09:08:27;;;;;;;2.37;1.97;;;21.50;59.10;;;;;;5051025;28;20422;-71
2023/11/07 09:10:54;;;;;;;1.50;1.27;;;21.50;58.50;;;;;;5051050;28;20261;-68
2023/11/07 09:13:20;;;;;;;2.50;1.43;;;21.50;58.60;;;;;;5050850;28;20171;-70
2023/11/07 09:15:46;;;;;;;1.87;1.63;;;21.50;58.50;;;;;;5050283;28;20864;-69
2023/11/07 09:18:12;;;;;;;3.60;1.23;;;21.50;58.50;;;;;;5050701;28;20517;-70
2023/11/07 09:20:37;;;;;;;1.27;1.00;;;21.50;58.50;;;;;;5050792;28;20183;-71
2023/11/07 09:23:04;;;;;;;2.50;1.60;;;21.50;58.50;;;;;;5050783;28;20293;-70
2023/11/07 09:25:30;;;;;;;2.17;1.37;;;21.50;58.50;;;;;;5050702;28;20232;-70
2023/11/07 09:27:55;;;;;;;3.07;1.50;;;21.50;58.50;;;;;;5050853;28;20960;-70
2023/11/07 09:30:21;;;;;;;1.90;1.37;;;21.50;58.50;;;;;;5050746;28;20202;-70
2023/11/07 09:32:48;;;;;;;1.73;1.30;;;21.50;58.60;;;;;;5050424;28;20175;-70
2023/11/07 09:35:14;;;;;;;2.63;1.23;;;21.50;58.50;;;;;;5049105;28;20209;-69
2023/11/07 09:37:40;;;;;;;2.17;1.40;;;21.50;58.60;;;;;;5050489;28;20457;-69
2023/11/07 09:40:13;;;;;;;1.70;1.30;;;21.50;58.70;;;;;;5050627;28;20402;-70
2023/11/07 09:42:44;;;;;;;2.07;1.30;;;21.50;58.70;;;;;;5050961;28;20429;-69
2023/11/07 09:45:14;;;;;;;1.97;1.30;;;21.50;58.70;;;;;;5050523;28;20425;-70
2023/11/07 09:47:40;;;;;;;1.83;1.20;;;21.50;58.70;;;;;;5050508;28;20416;-71
2023/11/07 09:50:07;;;;;;;2.10;1.57;;;21.60;58.80;;;;;;5050486;28;20409;-69
2023/11/07 09:52:34;;;;;;;1.50;1.10;;;21.60;58.80;;;;;;5050399;28;20576;-71
2023/11/07 09:55:06;;;;;;;1.30;1.17;;;21.50;58.70;;;;;;5050420;28;20413;-70
2023/11/07 09:57:35;;;;;;;1.70;1.27;;;21.50;58.70;;;;;;5050281;28;20452;-70
2023/11/07 10:00:02;;;;;;;1.60;1.17;;;21.50;58.70;;;;;;5050366;28;20410;-70
2023/11/07 10:02:30;;;;;;;1.50;1.07;;;21.50;58.70;;;;;;5051861;28;20414;-68
2023/11/07 10:04:57;;;;;;;1.50;1.10;;;21.50;58.80;;;;;;5051965;28;20417;-68
2023/11/07 10:07:23;;;;;;;7.63;1.67;;;21.60;58.80;;;;;;5052137;28;20436;-69
2023/11/07 10:09:50;;;;;;;2.43;1.30;;;21.60;58.80;;;;;;5052177;28;20417;-67
2023/11/07 10:12:16;;;;;;;2.17;1.30;;;21.60;58.80;;;;;;5052064;28;20646;-68
2023/11/07 10:14:42;;;;;;;2.07;1.50;;;21.60;58.80;;;;;;5053268;28;20487;-68
2023/11/07 10:17:21;;;;;;;1.97;1.13;;;21.60;58.80;;;;;;5051273;28;20293;-68
2023/11/07 10:20:06;;;;;;;2.23;1.20;;;21.60;58.80;;;;;;5051808;28;20414;-69
2023/11/07 10:22:44;;;;;;;3.37;1.50;;;21.60;58.80;;;;;;5051671;28;20382;-68
2023/11/07 10:25:26;;;;;;;2.10;1.10;;;21.60;58.80;;;;;;5051672;28;20498;-68
2023/11/07 10:28:05;;;;;;;1.90;1.57;;;21.60;58.80;;;;;;5052542;28;20390;-68
2023/11/07 10:30:45;;;;;;;2.27;1.40;;;21.60;58.80;;;;;;5055694;28;20841;-69
2023/11/07 10:33:23;;;;;;;1.70;1.03;;;21.60;58.80;;;;;;5055489;28;20992;-68
2023/11/07 10:35:54;;;;;;;1.43;1.20;;;21.60;58.80;;;;;;5056423;28;20952;-66
2023/11/07 10:38:21;;;;;;;1.60;1.03;;;21.60;58.90;;;;;;5055348;28;20461;-68
2023/11/07 10:40:48;;;;;;;2.17;1.30;;;21.60;59.40;;;;;;5055637;28;20410;-67
2023/11/07 10:43:29;;;;;;;1.60;1.20;;;21.60;58.80;;;;;;5055488;28;20451;-67
2023/11/07 10:45:56;;;;;;;3.63;1.30;;;21.60;58.90;;;;;;5055181;28;20425;-67
2023/11/07 10:48:22;;;;;;;1.87;1.30;;;21.60;58.90;;;;;;5053927;28;20471;-68
2023/11/07 10:50:48;;;;;;;1.37;0.90;;;21.60;58.90;;;;;;5055476;28;20413;-68
2023/11/07 10:53:16;;;;;;;1.30;1.03;;;21.60;58.90;;;;;;5054785;28;20650;-69
2023/11/07 10:55:42;;;;;;;1.30;1.00;;;21.60;58.90;;;;;;5054891;28;20436;-67
2023/11/07 10:58:10;;;;;;;1.57;1.13;;;21.60;58.90;;;;;;5055418;28;21269;-68
2023/11/07 11:00:36;;;;;;;1.20;0.90;;;21.60;58.90;;;;;;5055254;28;20199;-68
2023/11/07 11:03:09;;;;;;;1.67;1.30;;;21.60;58.90;;;;;;5055034;28;20441;-68
2023/11/07 11:05:37;;;;;;;1.40;1.30;;;21.60;58.90;;;;;;5054989;28;20190;-68
2023/11/07 11:08:04;;;;;;;1.57;1.20;;;21.70;59.00;;;;;;5055000;28;20409;-69
2023/11/07 11:10:32;;;;;;;1.53;1.10;;;21.60;58.90;;;;;;5055308;28;20417;-68
2023/11/07 11:12:58;;;;;;;1.30;1.10;;;21.70;59.00;;;;;;5055301;28;20638;-66
2023/11/07 11:15:25;;;;;;;2.20;1.00;;;21.70;59.00;;;;;;5054716;28;20436;-68
2023/11/07 11:17:58;;;;;;;2.03;1.30;;;21.70;59.00;;;;;;5054795;28;20540;-68
2023/11/07 11:20:31;;;;;;;1.20;0.90;;;21.70;59.00;;;;;;5054637;28;20397;-68
2023/11/07 11:23:16;;;;;;;1.60;1.10;;;21.70;59.00;;;;;;5054434;28;20410;-68
2023/11/07 11:26:13;;;;;;;1.60;1.40;;;21.70;59.00;;;;;;5054993;28;20421;-69
2023/11/07 11:28:41;;;;;;;1.77;1.33;;;21.70;59.00;;;;;;5052100;28;21055;-67
2023/11/07 11:31:12;;;;;;;4.17;1.20;;;21.70;59.00;;;;;;5054884;28;20908;-68
2023/11/07 11:33:38;;;;;;;1.40;1.00;;;21.70;59.00;;;;;;5054741;28;20839;-69
2023/11/07 11:36:33;;;;;;;1.70;1.20;;;21.70;59.00;;;;;;5054935;28;21268;-68
2023/11/07 11:38:59;;;;;;;1.70;1.10;;;21.70;59.00;;;;;;5053480;28;20198;-69
2023/11/07 11:41:55;;;;;;;1.70;1.33;;;21.70;59.00;;;;;;5054897;28;20804;-66
2023/11/07 11:44:22;;;;;;;1.97;1.10;;;21.70;59.00;;;;;;5056208;28;20931;-68
2023/11/07 11:46:48;;;;;;;1.13;1.03;;;21.70;59.00;;;;;;5054147;28;20436;-69
2023/11/07 11:49:16;;;;;;;1.10;0.87;;;21.70;59.00;;;;;;5054164;28;20413;-68
2023/11/07 11:51:46;;;;;;;1.50;1.10;;;21.70;59.00;;;;;;5054109;28;20261;-68
2023/11/07 11:54:35;;;;;;;1.77;1.30;;;21.70;59.00;;;;;;5054137;28;20458;-68
2023/11/07 11:57:01;;;;;;;1.83;1.00;;;21.70;59.00;;;;;;5054253;28;20429;-68
2023/11/07 11:59:28;;;;;;;1.20;1.00;;;21.70;59.00;;;;;;5054357;28;20996;-67
2023/11/07 12:01:58;;;;;;;1.20;0.90;;;21.70;59.00;;;;;;5053787;28;20716;-66
2023/11/07 12:04:32;;;;;;;1.57;1.17;;;21.70;59.00;;;;;;5053882;28;20485;-68
2023/11/07 12:07:10;;;;;;;1.13;1.03;;;21.70;59.00;;;;;;5054017;28;20425;-67
2023/11/07 12:09:49;;;;;;;1.93;1.20;;;21.70;59.00;;;;;;5053847;28;20918;-68
2023/11/07 12:12:16;;;;;;;1.63;1.20;;;21.70;59.00;;;;;;5053637;28;20920;-68
2023/11/07 12:15:00;;;;;;;1.73;1.20;;;21.70;59.00;;;;;;5053845;28;20440;-68
2023/11/07 12:17:42;;;;;;;1.77;1.10;;;21.70;59.00;;;;;;5053353;28;20488;-68
2023/11/07 12:20:11;;;;;;;1.30;1.10;;;21.70;59.00;;;;;;5053542;28;20889;-68
2023/11/07 12:22:48;;;;;;;1.80;1.10;;;21.70;59.00;;;;;;5054121;28;20420;-68
2023/11/07 12:25:20;;;;;;;1.70;1.00;;;21.70;59.00;;;;;;5053612;28;20801;-68
2023/11/07 12:28:03;;;;;;;1.30;0.80;;;21.80;59.10;;;;;;5053271;28;20426;-68
2023/11/07 12:30:30;;;;;;;1.80;1.30;;;21.70;59.00;;;;;;5053591;28;20899;-67
2023/11/07 12:33:03;;;;;;;1.53;1.43;;;21.70;59.00;;;;;;5053844;28;20420;-68
2023/11/07 12:35:30;;;;;;;2.00;1.07;;;21.70;59.00;;;;;;5051712;28;20820;-69
2023/11/07 12:38:01;;;;;;;1.40;1.00;;;21.70;59.00;;;;;;5052682;28;20457;-69
2023/11/07 12:40:27;;;;;;;1.30;1.10;;;21.70;59.00;;;;;;5053151;28;20413;-68
2023/11/07 12:42:54;;;;;;;1.40;1.00;;;21.70;59.00;;;;;;5053071;28;20410;-68
2023/11/07 12:45:30;;;;;;;2.50;1.53;;;21.70;59.00;;;;;;5053111;28;20431;-68
2023/11/07 12:48:09;;;;;;;2.93;1.40;;;21.70;59.00;;;;;;5053158;28;20441;-67
2023/11/07 12:50:46;;;;;;;2.53;1.10;;;21.80;59.00;;;;;;5051953;28;20390;-69